Millinocket, Maine
Current Conditions -  °F | °C
As of 8:53 AM on Thursday 29 Jan 2015 (Local Time) from KMLT Reporting Station
Haze Haze  
Wind Chill: -14°   Ceiling: Unl
Heat Index: -14°   Visibility: 3mi
Dew Point: -18°   Wind: 0mph
Humidity: 73%   Direction: NA
Pressure: 30.28"   Gusts: NA
Location:  45.66°N, 68.71°W
Report Text: KMLT 291353Z AUTO 00000KT 3SM HZ CLR M14/M18 A3028 RMK AO2 SLP267 T11391178
Loading
Personal Weather Stations






























Interactive Weather Map New forecast layout! Learn more

10-Day Weather Forecast

Advertisements
Track Severe Weather on mobile